Terminal Aerodrome Forecast
Issued by NWS Duluth, MN

Home | Current Version | Previous Version | Text Only | Print | Product List | Glossary On
Versions: 1 2 3 4 5 6 7 8 9 10 11 12 13 14 15 16 17 18 19 20 21 22
000
FTUS43 KDLH 161400 AAA
TAFDLH
TAF AMD
KDLH 161451Z 1615/1712 08014G21KT 2SM -SN OVC025
      TEMPO 1615/1618 1SM -SN BLSN OVC015
     FM161800 08016G25KT 1 1/2SM -SN BLSN BKN007 OVC015
     FM161900 07019G30KT 1/4SM +SN BLSN VV004
     FM170300 04019G30KT 1 1/2SM -SN BLSN OVC006
     FM170900 01013G20KT 4SM -SN SCT007 OVC015=

USA.gov is the U.S. government's official web portal to all federal, state and local government web resources and services.